Time;durP1;ratioP1;P1;durP2;ratioP2;P2;SDS_P1;SDS_P2;PMS_P1;PMS_P2;Temp;Humidity;BMP_temperature;BMP_pressure;BME280_temperature;BME280_humidity;BME280_pressure;Samples;Min_cycle;Max_cycle;Signal;HPM_P1;HPM_P2
2023/06/10 00:02:08;;;;;;;3.43;3.03;;;13.00;99.90;;;;;;5075811;28;20189;-70
2023/06/10 00:04:36;;;;;;;7.83;4.10;;;13.10;99.90;;;;;;5076601;28;20432;-67
2023/06/10 00:07:08;;;;;;;7.10;4.63;;;13.10;99.90;;;;;;5075448;28;20244;-66
2023/06/10 00:09:37;;;;;;;4.53;3.27;;;13.10;99.90;;;;;;5076290;28;20487;-66
2023/06/10 00:12:09;;;;;;;8.87;4.17;;;13.00;99.90;;;;;;5075694;28;20408;-68
2023/06/10 00:14:37;;;;;;;9.67;4.50;;;13.00;99.90;;;;;;5076283;28;20458;-66
2023/06/10 00:17:03;;;;;;;4.83;4.00;;;13.00;99.90;;;;;;5076389;28;20418;-68
2023/06/10 00:19:30;;;;;;;7.00;3.70;;;13.10;99.90;;;;;;5076261;28;20972;-68
2023/06/10 00:21:56;;;;;;;10.00;3.77;;;13.00;99.90;;;;;;5073292;28;20584;-69
2023/06/10 00:24:22;;;;;;;11.50;3.40;;;13.00;99.90;;;;;;5074941;28;21051;-68
2023/06/10 00:26:48;;;;;;;14.63;4.10;;;13.00;99.90;;;;;;5075604;28;20487;-68
2023/06/10 00:29:14;;;;;;;9.23;3.50;;;13.00;99.90;;;;;;5076233;28;20170;-68
2023/06/10 00:31:40;;;;;;;5.97;3.60;;;13.00;99.90;;;;;;5075308;28;20166;-68
2023/06/10 00:34:07;;;;;;;8.07;3.70;;;13.00;99.90;;;;;;5075962;28;20460;-70
2023/06/10 00:36:33;;;;;;;6.70;3.80;;;13.00;99.90;;;;;;5075234;28;20436;-69
2023/06/10 00:38:59;;;;;;;9.37;4.00;;;13.00;99.90;;;;;;5076021;28;20433;-70
2023/06/10 00:41:29;;;;;;;5.47;4.40;;;12.90;99.90;;;;;;5075164;28;20793;-71
2023/06/10 00:43:54;;;;;;;7.50;3.57;;;12.90;99.90;;;;;;5074323;28;20237;-68
2023/06/10 00:46:22;;;;;;;5.33;3.40;;;12.90;99.90;;;;;;5074157;28;20391;-66
2023/06/10 00:48:47;;;;;;;5.87;3.40;;;12.90;99.90;;;;;;5073621;28;20179;-67
2023/06/10 00:51:13;;;;;;;6.13;3.43;;;12.90;99.90;;;;;;5073662;28;20419;-68
2023/06/10 00:53:41;;;;;;;9.33;3.90;;;12.90;99.90;;;;;;5074527;28;20213;-68
2023/06/10 00:56:07;;;;;;;9.60;3.00;;;12.90;99.90;;;;;;5074627;28;20454;-69
2023/06/10 00:58:33;;;;;;;4.70;3.70;;;12.90;99.90;;;;;;5073334;28;20406;-68
2023/06/10 01:01:00;;;;;;;3.67;3.10;;;12.90;99.90;;;;;;5072608;28;20858;-66
2023/06/10 01:03:26;;;;;;;4.90;3.40;;;12.90;99.90;;;;;;5073723;28;20480;-68
2023/06/10 01:06:11;;;;;;;5.47;3.67;;;12.90;99.90;;;;;;5074084;28;20502;-68
2023/06/10 01:08:57;;;;;;;6.80;3.60;;;12.80;99.90;;;;;;5074507;28;20174;-68
2023/06/10 01:11:34;;;;;;;10.20;3.67;;;12.80;99.90;;;;;;5073341;28;20862;-69
2023/06/10 01:14:01;;;;;;;4.17;3.70;;;12.80;99.90;;;;;;5054365;28;20471;-68
2023/06/10 01:16:28;;;;;;;4.57;3.17;;;12.80;99.90;;;;;;5054279;28;20484;-68
2023/06/10 01:18:54;;;;;;;4.70;3.33;;;12.80;99.90;;;;;;5054153;28;20758;-68
2023/06/10 01:21:24;;;;;;;11.03;2.70;;;12.80;99.90;;;;;;5052906;28;20449;-67
2023/06/10 01:23:51;;;;;;;6.10;3.20;;;12.80;99.90;;;;;;5053561;28;20520;-68
2023/06/10 01:26:18;;;;;;;3.30;2.70;;;12.80;99.90;;;;;;5053462;28;20519;-68
2023/06/10 01:28:49;;;;;;;5.40;4.50;;;12.90;99.90;;;;;;5059851;28;20407;-67
2023/06/10 01:31:41;;;;;;;3.03;2.83;;;12.80;99.90;;;;;;5053109;28;20398;-67
2023/06/10 01:34:10;;;;;;;9.97;3.40;;;12.80;99.90;;;;;;5053801;28;20428;-69
2023/06/10 01:36:37;;;;;;;7.63;2.40;;;12.80;99.90;;;;;;5055395;28;20809;-65
2023/06/10 01:39:04;;;;;;;5.27;3.00;;;12.80;99.90;;;;;;5053521;28;20750;-70
2023/06/10 01:41:31;;;;;;;4.20;2.30;;;12.70;99.90;;;;;;5064415;28;20428;-67
2023/06/10 01:43:57;;;;;;;12.67;3.67;;;12.70;99.90;;;;;;5029851;28;1265479;-65
2023/06/10 01:46:23;;;;;;;5.63;2.90;;;12.70;99.90;;;;;;5074780;28;20170;-66
2023/06/10 01:48:48;;;;;;;7.57;3.13;;;12.70;99.90;;;;;;5074810;28;20229;-67
2023/06/10 01:51:15;;;;;;;3.77;3.27;;;12.70;99.90;;;;;;5072515;28;20181;-68
2023/06/10 01:53:40;;;;;;;9.40;4.00;;;12.80;99.90;;;;;;5074368;28;20198;-68
2023/06/10 01:56:06;;;;;;;6.40;2.53;;;12.70;99.90;;;;;;5073329;28;20948;-68
2023/06/10 01:58:32;;;;;;;7.90;2.57;;;12.70;99.90;;;;;;5074396;28;20162;-67
2023/06/10 02:00:57;;;;;;;6.27;3.00;;;12.70;99.90;;;;;;5073197;28;20239;-68
2023/06/10 02:03:23;;;;;;;6.20;2.73;;;12.70;99.90;;;;;;5074293;28;20189;-68
2023/06/10 02:05:49;;;;;;;4.40;2.97;;;12.70;99.90;;;;;;5073414;28;20215;-68
2023/06/10 02:08:15;;;;;;;10.97;3.93;;;12.60;99.90;;;;;;5074327;28;20182;-67
2023/06/10 02:10:40;;;;;;;6.60;3.13;;;12.60;99.90;;;;;;5072374;28;20440;-70
2023/06/10 02:13:06;;;;;;;4.00;3.30;;;12.60;99.90;;;;;;5074100;28;20720;-67
2023/06/10 02:15:32;;;;;;;5.07;3.17;;;12.60;99.90;;;;;;5073274;28;20174;-68
2023/06/10 02:17:58;;;;;;;5.40;2.80;;;12.60;99.90;;;;;;5073853;28;20364;-68
2023/06/10 02:20:24;;;;;;;6.17;2.67;;;12.60;99.90;;;;;;5072874;28;20187;-68
2023/06/10 02:22:50;;;;;;;4.93;2.97;;;12.50;99.90;;;;;;5072193;28;20865;-68
2023/06/10 02:25:15;;;;;;;5.03;2.50;;;12.50;99.90;;;;;;5074074;28;20174;-65
2023/06/10 02:27:41;;;;;;;6.00;3.07;;;12.50;99.90;;;;;;5073815;28;20220;-66
2023/06/10 02:30:09;;;;;;;7.63;3.00;;;12.50;99.90;;;;;;5072950;28;20174;-69
2023/06/10 02:32:35;;;;;;;4.63;2.87;;;12.50;99.90;;;;;;5073973;28;20239;-68
2023/06/10 02:35:01;;;;;;;4.47;2.30;;;12.60;99.90;;;;;;5073733;28;20944;-67
2023/06/10 02:37:27;;;;;;;4.70;2.33;;;12.50;99.90;;;;;;5072734;28;20181;-69
2023/06/10 02:39:52;;;;;;;4.67;2.47;;;12.50;99.90;;;;;;5073174;28;20732;-67
2023/06/10 02:42:19;;;;;;;9.30;2.90;;;12.60;99.90;;;;;;5073059;28;20217;-65
2023/06/10 02:44:44;;;;;;;2.00;1.80;;;12.60;99.90;;;;;;5073308;28;20197;-68
2023/06/10 02:47:10;;;;;;;5.00;2.83;;;12.60;99.90;;;;;;5072884;28;20442;-65
2023/06/10 02:49:36;;;;;;;5.03;2.90;;;12.60;99.90;;;;;;5073502;28;20248;-66
2023/06/10 02:52:02;;;;;;;8.93;2.40;;;12.70;99.90;;;;;;5070575;28;20174;-68
2023/06/10 02:54:28;;;;;;;4.97;2.33;;;12.60;99.90;;;;;;5073200;28;20651;-69
2023/06/10 02:56:55;;;;;;;3.20;2.63;;;12.70;99.90;;;;;;5072950;28;20453;-66
2023/06/10 02:59:21;;;;;;;7.63;2.80;;;12.60;99.90;;;;;;5073463;28;20172;-68
2023/06/10 03:01:47;;;;;;;9.67;3.87;;;12.60;99.90;;;;;;5072695;28;20787;-68
2023/06/10 03:04:16;;;;;;;5.93;2.20;;;12.60;99.90;;;;;;5073171;28;20425;-66
2023/06/10 03:06:42;;;;;;;9.83;2.57;;;12.60;99.90;;;;;;5063675;28;20589;-68
2023/06/10 03:09:07;;;;;;;12.27;4.23;;;12.70;99.90;;;;;;5052035;28;20408;-68
2023/06/10 03:11:33;;;;;;;6.30;2.30;;;12.70;99.90;;;;;;5052346;28;20182;-66
2023/06/10 03:13:59;;;;;;;3.77;2.40;;;12.70;99.90;;;;;;5052372;28;20575;-67
2023/06/10 03:16:25;;;;;;;2.90;2.47;;;12.70;99.90;;;;;;5070563;28;20418;-66
2023/06/10 03:18:51;;;;;;;2.90;2.07;;;12.70;99.90;;;;;;5073065;28;20196;-66
2023/06/10 03:21:17;;;;;;;4.30;2.03;;;12.70;99.90;;;;;;5071611;28;20619;-65
2023/06/10 03:23:42;;;;;;;2.60;2.00;;;12.80;99.90;;;;;;5072952;28;20438;-67
2023/06/10 03:26:09;;;;;;;5.53;2.67;;;12.80;99.90;;;;;;5072839;28;20200;-67
2023/06/10 03:28:35;;;;;;;7.43;2.40;;;12.80;99.90;;;;;;5072387;28;20181;-68
2023/06/10 03:31:01;;;;;;;3.60;2.37;;;12.80;99.90;;;;;;5071525;28;20729;-68
2023/06/10 03:33:27;;;;;;;8.90;2.70;;;12.90;99.90;;;;;;5072883;28;20426;-68
2023/06/10 03:35:53;;;;;;;4.50;3.30;;;12.90;99.90;;;;;;5073059;28;20653;-67
2023/06/10 03:38:19;;;;;;;5.10;1.87;;;13.00;96.70;;;;;;5072928;28;20166;-65
2023/06/10 03:40:44;;;;;;;5.17;2.50;;;13.10;93.20;;;;;;5070789;28;20180;-67
2023/06/10 03:43:10;;;;;;;3.20;2.53;;;13.00;93.10;;;;;;5072027;28;20509;-68
2023/06/10 03:45:36;;;;;;;6.73;3.17;;;13.00;93.20;;;;;;5072920;28;20216;-66
2023/06/10 03:48:03;;;;;;;4.20;2.23;;;13.00;93.10;;;;;;5072890;28;20173;-67
2023/06/10 03:50:29;;;;;;;4.33;2.33;;;13.00;93.20;;;;;;5071578;28;20623;-68
2023/06/10 03:52:54;;;;;;;4.17;2.67;;;13.10;93.20;;;;;;5071424;28;20486;-68
2023/06/10 03:55:21;;;;;;;6.80;2.47;;;13.10;93.20;;;;;;5072765;28;20202;-66
2023/06/10 03:57:48;;;;;;;6.20;2.10;;;13.20;93.20;;;;;;5072080;28;20178;-68
2023/06/10 04:00:15;;;;;;;4.13;1.70;;;13.20;93.20;;;;;;5071798;28;20721;-68
2023/06/10 04:02:45;;;;;;;7.10;1.70;;;13.20;93.20;;;;;;5072655;28;20499;-69
2023/06/10 04:05:12;;;;;;;3.97;2.20;;;13.20;92.60;;;;;;5072819;28;20791;-67
2023/06/10 04:07:40;;;;;;;8.90;2.63;;;13.20;93.20;;;;;;5072307;28;20827;-69
2023/06/10 04:10:07;;;;;;;4.17;2.37;;;13.30;93.30;;;;;;5071439;28;20416;-70
2023/06/10 04:12:33;;;;;;;4.23;2.67;;;13.30;92.20;;;;;;5070553;28;20440;-68
2023/06/10 04:14:59;;;;;;;5.63;1.97;;;13.30;93.00;;;;;;5071735;28;20860;-69
2023/06/10 04:17:25;;;;;;;5.03;3.80;;;13.30;92.10;;;;;;5071334;28;20174;-68
2023/06/10 04:19:51;;;;;;;5.13;2.80;;;13.40;93.20;;;;;;5072608;28;20439;-68
2023/06/10 04:22:18;;;;;;;3.90;2.13;;;13.40;91.50;;;;;;5070752;28;20434;-69
2023/06/10 04:24:44;;;;;;;5.40;2.13;;;13.40;86.10;;;;;;5072354;28;20420;-68
2023/06/10 04:27:10;;;;;;;5.83;2.50;;;13.50;82.70;;;;;;5069271;28;20839;-69
2023/06/10 04:29:36;;;;;;;5.43;2.50;;;13.60;82.60;;;;;;5071891;28;20174;-67
2023/06/10 04:32:02;;;;;;;6.70;2.20;;;13.60;79.10;;;;;;5071595;28;20393;-70
2023/06/10 04:34:28;;;;;;;5.10;2.80;;;13.60;73.90;;;;;;5072264;28;20450;-69
2023/06/10 04:36:54;;;;;;;7.17;2.00;;;13.70;69.60;;;;;;5072449;28;20166;-69
2023/06/10 04:39:20;;;;;;;4.43;2.83;;;13.70;59.00;;;;;;5076132;28;20885;-69
2023/06/10 04:41:46;;;;;;;4.50;2.47;;;13.80;52.60;;;;;;5073589;28;20390;-69
2023/06/10 04:44:13;;;;;;;9.77;2.83;;;13.80;48.60;;;;;;5075786;28;20202;-69
2023/06/10 04:46:39;;;;;;;5.43;2.23;;;13.80;40.00;;;;;;5075940;28;20390;-68
2023/06/10 04:49:05;;;;;;;7.47;2.93;;;13.90;35.30;;;;;;5074240;28;20416;-69
2023/06/10 04:51:31;;;;;;;10.70;2.73;;;14.00;32.80;;;;;;5075036;28;20165;-68
2023/06/10 04:53:58;;;;;;;6.10;2.40;;;14.10;27.10;;;;;;5074553;28;20218;-68
2023/06/10 04:56:25;;;;;;;6.10;2.30;;;14.10;20.70;;;;;;5075720;28;20413;-69
2023/06/10 04:58:51;;;;;;;4.00;2.37;;;14.20;17.20;;;;;;5075476;28;20427;-67
2023/06/10 05:01:16;;;;;;;5.03;2.40;;;14.20;9.60;;;;;;5074861;28;20750;-69
2023/06/10 05:03:42;;;;;;;7.93;2.40;;;14.20;6.60;;;;;;5074681;28;20310;-64
2023/06/10 05:06:08;;;;;;;12.60;2.47;;;14.30;6.50;;;;;;5075608;28;20162;-69
2023/06/10 05:08:33;;;;;;;4.63;2.70;;;14.40;4.30;;;;;;5073747;28;20166;-69
2023/06/10 05:10:59;;;;;;;3.70;2.10;;;14.50;2.90;;;;;;5072495;28;20197;-69
2023/06/10 05:13:25;;;;;;;6.30;2.07;;;14.50;1.00;;;;;;5075308;28;20182;-70
2023/06/10 05:15:51;;;;;;;7.87;3.50;;;14.50;1.00;;;;;;5075568;28;20651;-67
2023/06/10 05:18:16;;;;;;;4.00;2.43;;;14.50;1.00;;;;;;5074638;28;20635;-70
2023/06/10 05:20:42;;;;;;;3.80;1.73;;;14.50;1.00;;;;;;5054380;28;20171;-68
2023/06/10 05:23:08;;;;;;;6.80;2.00;;;14.60;1.00;;;;;;5055141;28;20198;-67
2023/06/10 05:25:33;;;;;;;4.60;2.07;;;14.70;1.00;;;;;;5054551;28;20632;-68
2023/06/10 05:27:59;;;;;;;3.13;1.90;;;14.80;1.00;;;;;;5068106;28;20673;-69
2023/06/10 05:30:26;;;;;;;4.17;2.30;;;14.80;1.00;;;;;;5074250;28;20170;-66
2023/06/10 05:32:52;;;;;;;2.13;1.93;;;14.80;1.00;;;;;;5074974;28;20420;-66
2023/06/10 05:35:18;;;;;;;5.60;2.97;;;15.00;1.00;;;;;;5074927;28;20448;-69
2023/06/10 05:37:44;;;;;;;6.30;2.37;;;15.00;1.00;;;;;;5070988;28;20428;-68
2023/06/10 05:40:11;;;;;;;4.00;2.53;;;15.10;1.00;;;;;;5068731;28;20432;-70
2023/06/10 05:42:36;;;;;;;4.33;2.10;;;15.10;1.00;;;;;;5074334;28;20966;-67
2023/06/10 05:45:03;;;;;;;5.30;2.20;;;15.20;1.00;;;;;;5074768;28;20428;-68
2023/06/10 05:47:29;;;;;;;9.23;2.90;;;15.10;1.00;;;;;;5074741;28;20166;-68
2023/06/10 05:49:55;;;;;;;6.07;2.97;;;15.10;1.00;;;;;;5072049;28;20413;-69
2023/06/10 05:52:21;;;;;;;11.50;2.90;;;15.10;1.00;;;;;;5071973;28;20432;-66
2023/06/10 05:54:47;;;;;;;5.47;2.57;;;15.20;1.00;;;;;;5071734;28;20569;-69
2023/06/10 05:57:12;;;;;;;3.97;1.67;;;15.20;1.00;;;;;;5073600;28;20263;-69
2023/06/10 05:59:38;;;;;;;3.70;1.93;;;15.30;1.00;;;;;;5074164;28;20162;-67
2023/06/10 06:02:05;;;;;;;7.70;2.23;;;15.40;1.00;;;;;;5073653;28;20170;-68
2023/06/10 06:04:32;;;;;;;5.53;2.60;;;15.40;1.00;;;;;;5074388;28;20182;-68
2023/06/10 06:06:57;;;;;;;7.93;4.40;;;15.40;1.00;;;;;;5074329;28;21008;-65
2023/06/10 06:09:23;;;;;;;5.50;2.40;;;15.50;1.00;;;;;;5055194;28;20516;-69
2023/06/10 06:11:49;;;;;;;5.63;2.67;;;15.40;1.00;;;;;;5053535;28;20175;-67
2023/06/10 06:14:14;;;;;;;6.83;2.47;;;15.40;1.00;;;;;;5054136;28;20199;-69
2023/06/10 06:16:40;;;;;;;6.57;2.10;;;15.50;1.00;;;;;;5053753;28;20170;-69
2023/06/10 06:19:06;;;;;;;5.77;2.60;;;15.50;1.00;;;;;;5054114;28;20174;-71
2023/06/10 06:21:31;;;;;;;10.70;3.13;;;15.60;1.00;;;;;;5057611;28;20194;-70
2023/06/10 06:23:57;;;;;;;9.87;2.30;;;15.70;1.00;;;;;;5074105;28;20185;-66
2023/06/10 06:26:23;;;;;;;8.90;2.60;;;15.70;1.00;;;;;;5074040;28;20184;-70
2023/06/10 06:28:49;;;;;;;9.43;2.97;;;15.70;1.00;;;;;;5073868;28;20405;-67
2023/06/10 06:31:15;;;;;;;3.53;2.80;;;15.70;1.00;;;;;;5073048;28;20756;-67
2023/06/10 06:33:40;;;;;;;6.90;2.17;;;15.70;1.00;;;;;;5073555;28;20209;-70
2023/06/10 06:36:06;;;;;;;2.73;2.30;;;15.70;1.00;;;;;;5072488;28;20173;-66
2023/06/10 06:38:32;;;;;;;4.67;2.10;;;15.70;1.00;;;;;;5073856;28;20527;-66
2023/06/10 06:41:02;;;;;;;6.10;2.63;;;15.80;1.00;;;;;;5071255;28;20524;-66
2023/06/10 06:43:29;;;;;;;10.47;3.10;;;16.00;1.00;;;;;;5072659;28;20193;-68
2023/06/10 06:45:56;;;;;;;5.20;2.37;;;16.10;1.00;;;;;;5073709;28;20416;-71
2023/06/10 06:48:21;;;;;;;7.23;2.67;;;16.10;1.00;;;;;;5073519;28;20928;-71
2023/06/10 06:50:47;;;;;;;6.37;2.43;;;16.30;1.00;;;;;;5071471;28;20397;-71
2023/06/10 06:53:13;;;;;;;6.53;3.17;;;16.30;1.00;;;;;;5072525;28;20248;-69
2023/06/10 06:55:38;;;;;;;5.50;2.50;;;16.30;1.00;;;;;;5073317;28;20282;-71
2023/06/10 06:58:04;;;;;;;7.03;3.10;;;16.40;1.00;;;;;;5073439;28;20496;-71
2023/06/10 07:00:31;;;;;;;11.33;2.93;;;16.40;1.00;;;;;;5070638;28;20639;-70
2023/06/10 07:02:56;;;;;;;5.17;2.50;;;16.40;1.00;;;;;;5071504;28;20197;-66
2023/06/10 07:05:25;;;;;;;5.67;2.30;;;16.50;1.00;;;;;;5068185;28;20411;-70
2023/06/10 07:07:54;;;;;;;8.07;2.87;;;16.60;1.00;;;;;;5063638;28;20183;-67
2023/06/10 07:10:24;;;;;;;7.27;3.03;;;16.70;1.00;;;;;;5051842;28;20760;-70
2023/06/10 07:12:50;;;;;;;7.50;2.43;;;16.80;1.00;;;;;;5053171;28;20496;-70
2023/06/10 07:15:16;;;;;;;3.17;1.90;;;16.80;1.00;;;;;;5053202;28;20548;-66
2023/06/10 07:17:41;;;;;;;8.87;3.20;;;16.70;1.00;;;;;;5052981;28;20174;-71
2023/06/10 07:20:08;;;;;;;5.77;2.63;;;16.70;1.00;;;;;;5051180;28;20486;-69
2023/06/10 07:22:33;;;;;;;7.33;2.87;;;16.80;1.00;;;;;;5065220;28;20543;-69
2023/06/10 07:24:59;;;;;;;11.50;2.97;;;16.70;1.00;;;;;;5072455;28;20428;-66
2023/06/10 07:27:25;;;;;;;6.53;2.80;;;16.70;1.00;;;;;;5073114;28;20162;-69
2023/06/10 07:29:51;;;;;;;6.67;2.80;;;16.70;1.00;;;;;;5071384;28;20174;-67
2023/06/10 07:32:17;;;;;;;7.93;3.07;;;16.90;1.00;;;;;;5071946;28;20166;-68
2023/06/10 07:34:43;;;;;;;5.50;2.90;;;17.10;1.00;;;;;;5072937;28;20829;-68
2023/06/10 07:37:09;;;;;;;5.47;2.57;;;17.10;1.00;;;;;;5072322;28;20431;-70
2023/06/10 07:39:35;;;;;;;4.10;2.83;;;17.00;1.00;;;;;;5073014;28;20897;-68
2023/06/10 07:42:01;;;;;;;10.37;2.40;;;17.00;1.00;;;;;;5070624;28;20209;-69
2023/06/10 07:44:26;;;;;;;9.37;3.40;;;17.00;1.00;;;;;;5068413;28;20573;-67
2023/06/10 07:46:52;;;;;;;6.30;3.90;;;17.00;1.00;;;;;;5086279;28;20396;-67
2023/06/10 07:49:18;;;;;;;9.80;3.30;;;16.90;1.00;;;;;;5052299;28;20175;-71
2023/06/10 07:51:44;;;;;;;7.50;2.93;;;16.90;1.00;;;;;;5051803;28;20199;-71
2023/06/10 07:54:12;;;;;;;6.57;2.67;;;17.00;1.00;;;;;;5052566;28;20558;-66
2023/06/10 07:56:38;;;;;;;6.83;3.30;;;17.00;1.00;;;;;;5052877;28;20398;-67
2023/06/10 07:59:03;;;;;;;9.30;3.30;;;17.10;1.00;;;;;;5052661;28;20398;-70
2023/06/10 08:01:30;;;;;;;10.00;3.37;;;17.30;1.00;;;;;;5053825;28;20416;-69
2023/06/10 08:03:55;;;;;;;6.40;2.40;;;17.50;1.00;;;;;;5072668;28;20206;-67
2023/06/10 08:06:21;;;;;;;8.23;3.17;;;17.60;1.00;;;;;;5072619;28;20436;-71
2023/06/10 08:08:47;;;;;;;9.60;3.50;;;17.60;1.00;;;;;;5072335;28;20523;-68
2023/06/10 08:11:13;;;;;;;11.33;2.50;;;17.80;1.00;;;;;;5071584;28;20530;-67
2023/06/10 08:13:39;;;;;;;10.17;5.50;;;17.90;1.00;;;;;;5075269;28;20190;-71
2023/06/10 08:16:05;;;;;;;6.87;2.27;;;17.90;1.00;;;;;;5075523;28;20431;-68
2023/06/10 08:18:31;;;;;;;9.03;4.23;;;17.70;1.00;;;;;;5075685;28;20424;-68
2023/06/10 08:20:57;;;;;;;6.90;2.43;;;17.50;1.00;;;;;;5075562;28;20173;-66
2023/06/10 08:23:23;;;;;;;4.67;3.13;;;17.50;1.00;;;;;;5076268;28;20182;-68
2023/06/10 08:25:49;;;;;;;6.40;4.40;;;17.60;1.00;;;;;;5075961;28;20450;-68
2023/06/10 08:28:14;;;;;;;8.13;2.70;;;17.80;1.00;;;;;;5075959;28;20161;-70
2023/06/10 08:30:40;;;;;;;6.07;2.83;;;17.60;1.00;;;;;;5074622;28;20188;-67
2023/06/10 08:33:06;;;;;;;5.73;3.20;;;17.60;1.00;;;;;;5075374;28;20547;-69
2023/06/10 08:35:31;;;;;;;9.13;3.40;;;17.80;1.00;;;;;;5076060;28;20198;-71
2023/06/10 08:37:57;;;;;;;4.17;3.40;;;18.00;1.00;;;;;;5076202;28;20166;-67
2023/06/10 08:40:24;;;;;;;8.27;3.03;;;18.20;1.00;;;;;;5075044;28;20695;-71
2023/06/10 08:43:00;;;;;;;5.20;2.57;;;18.30;1.00;;;;;;5073814;28;20542;-68
2023/06/10 08:45:31;;;;;;;5.50;3.20;;;18.30;1.00;;;;;;5075426;28;20423;-68
2023/06/10 08:47:58;;;;;;;9.60;3.37;;;18.10;1.00;;;;;;5075942;28;20396;-70
2023/06/10 08:50:26;;;;;;;6.10;3.23;;;18.20;1.00;;;;;;5073644;28;20420;-71
2023/06/10 08:52:56;;;;;;;7.53;3.10;;;18.20;1.00;;;;;;5075619;28;20935;-68
2023/06/10 08:55:29;;;;;;;5.37;2.67;;;18.20;1.00;;;;;;5074457;28;21006;-67
2023/06/10 08:57:55;;;;;;;8.73;3.30;;;18.30;1.00;;;;;;5075205;28;20432;-69
2023/06/10 09:00:21;;;;;;;10.70;3.10;;;18.50;1.00;;;;;;5074782;28;20408;-68
2023/06/10 09:02:47;;;;;;;6.13;2.50;;;18.80;1.00;;;;;;5074471;28;20432;-70
2023/06/10 09:05:13;;;;;;;7.50;2.70;;;19.00;1.00;;;;;;5073812;28;20427;-67
2023/06/10 09:07:40;;;;;;;6.47;2.80;;;19.30;1.00;;;;;;5075574;28;20507;-69
2023/06/10 09:10:07;;;;;;;9.10;3.87;;;19.60;1.00;;;;;;5073953;28;20440;-75
2023/06/10 09:12:34;;;;;;;6.40;2.93;;;19.40;1.00;;;;;;5075478;28;20433;-70
2023/06/10 09:15:00;;;;;;;10.40;3.33;;;19.30;1.00;;;;;;5075244;28;20476;-67
2023/06/10 09:17:27;;;;;;;9.83;3.27;;;19.50;1.00;;;;;;5073850;28;20535;-68
2023/06/10 09:19:55;;;;;;;8.90;3.00;;;19.80;1.00;;;;;;5075341;28;20446;-70
2023/06/10 09:22:25;;;;;;;9.40;2.80;;;20.00;1.00;;;;;;5074236;28;20404;-68
2023/06/10 09:24:51;;;;;;;4.50;2.57;;;19.90;1.00;;;;;;5074790;28;20397;-68
2023/06/10 09:27:16;;;;;;;4.77;2.30;;;19.80;1.00;;;;;;5074935;28;20761;-69
2023/06/10 09:29:53;;;;;;;6.43;2.50;;;20.10;1.00;;;;;;5074487;28;20184;-67
2023/06/10 09:32:19;;;;;;;7.00;2.60;;;20.50;1.00;;;;;;5073235;28;20174;-70
2023/06/10 09:34:46;;;;;;;6.50;2.40;;;20.50;1.00;;;;;;5073756;28;20520;-71
2023/06/10 09:37:13;;;;;;;7.30;3.17;;;20.70;1.00;;;;;;5073448;28;20793;-69
2023/06/10 09:39:40;;;;;;;10.57;3.27;;;20.80;1.00;;;;;;5075043;28;20392;-69
2023/06/10 09:42:18;;;;;;;3.13;2.10;;;20.40;1.00;;;;;;5070670;28;20982;-68
2023/06/10 09:44:51;;;;;;;6.60;2.87;;;20.60;1.00;;;;;;5074733;28;20428;-67
2023/06/10 09:47:23;;;;;;;3.90;2.43;;;20.80;1.00;;;;;;5074835;28;20924;-69
2023/06/10 09:49:54;;;;;;;8.80;2.93;;;21.10;1.00;;;;;;5074710;28;20389;-71
2023/06/10 09:52:24;;;;;;;8.90;2.67;;;21.30;1.00;;;;;;5074175;28;20903;-70
2023/06/10 09:54:55;;;;;;;5.60;2.20;;;21.40;1.00;;;;;;5073130;28;20590;-68
2023/06/10 09:57:22;;;;;;;6.83;2.43;;;21.70;1.00;;;;;;5074547;28;21208;-67
2023/06/10 09:59:47;;;;;;;5.33;2.40;;;21.40;1.00;;;;;;5074514;28;20423;-73
2023/06/10 10:02:17;;;;;;;8.00;2.50;;;21.50;1.00;;;;;;5073153;28;20454;-67
2023/06/10 10:04:44;;;;;;;7.70;3.30;;;22.10;1.00;;;;;;5074437;28;20190;-67
2023/06/10 10:07:10;;;;;;;7.17;2.70;;;22.60;1.00;;;;;;5074396;28;20409;-68
2023/06/10 10:09:42;;;;;;;4.63;2.60;;;23.00;1.00;;;;;;5073647;28;20456;-67
2023/06/10 10:12:12;;;;;;;4.10;2.40;;;22.70;1.00;;;;;;5073505;28;20465;-69
2023/06/10 10:14:41;;;;;;;8.07;3.20;;;22.40;1.00;;;;;;5074081;28;20444;-69
2023/06/10 10:17:11;;;;;;;11.50;3.93;;;22.30;99.90;;;;;;5073265;28;20484;-69
2023/06/10 10:19:53;;;;;;;6.67;4.67;;;22.50;99.90;;;;;;5073665;28;20462;-68
2023/06/10 10:22:24;;;;;;;6.23;2.90;;;22.10;99.90;;;;;;5072697;28;20978;-67
2023/06/10 10:24:53;;;;;;;9.87;2.20;;;22.30;99.90;;;;;;5073291;28;20455;-66
2023/06/10 10:27:27;;;;;;;6.03;2.50;;;22.50;99.90;;;;;;5072152;28;20428;-69
2023/06/10 10:29:54;;;;;;;4.00;2.23;;;22.50;99.90;;;;;;5073869;28;20408;-69
2023/06/10 10:32:32;;;;;;;7.17;2.53;;;22.30;99.90;;;;;;5073338;28;20396;-69
2023/06/10 10:35:08;;;;;;;5.23;2.40;;;22.40;99.90;;;;;;5073210;28;20445;-70
2023/06/10 10:37:35;;;;;;;6.87;2.43;;;22.90;99.90;;;;;;5054702;28;20436;-69
2023/06/10 10:40:02;;;;;;;5.13;2.13;;;23.40;99.90;;;;;;5053046;28;20766;-68
2023/06/10 10:42:29;;;;;;;5.77;2.23;;;23.20;99.90;;;;;;5053271;28;20397;-67
2023/06/10 10:44:56;;;;;;;7.23;2.30;;;23.00;99.90;;;;;;5053695;28;20429;-67
2023/06/10 10:47:22;;;;;;;7.70;1.97;;;22.60;99.90;;;;;;5053638;28;20428;-68
2023/06/10 10:49:50;;;;;;;3.43;2.33;;;22.80;99.90;;;;;;5056748;28;20436;-74
2023/06/10 10:52:16;;;;;;;5.70;2.10;;;23.40;99.90;;;;;;5071746;28;20412;-67
2023/06/10 10:54:46;;;;;;;9.20;2.87;;;23.70;99.90;;;;;;5073419;28;20956;-67
2023/06/10 10:57:13;;;;;;;7.30;2.53;;;23.70;99.90;;;;;;5072973;28;20166;-68
2023/06/10 10:59:48;;;;;;;6.77;2.57;;;23.90;99.90;;;;;;5073429;28;20400;-68
2023/06/10 11:02:43;;;;;;;7.90;2.37;;;24.00;99.90;;;;;;5072647;28;20400;-68
2023/06/10 11:05:10;;;;;;;9.27;2.83;;;23.90;99.90;;;;;;5068495;28;20471;-67
2023/06/10 11:07:37;;;;;;;4.40;2.87;;;23.80;99.90;;;;;;5073256;28;20817;-68
2023/06/10 11:10:07;;;;;;;5.63;1.90;;;23.40;99.90;;;;;;5073056;28;20746;-67
2023/06/10 11:12:59;;;;;;;6.17;2.47;;;23.60;99.90;;;;;;5073295;28;20419;-70
2023/06/10 11:15:29;;;;;;;11.03;2.70;;;24.20;99.90;;;;;;5070713;28;20487;-70
2023/06/10 11:18:20;;;;;;;7.87;2.30;;;23.90;99.90;;;;;;5072191;28;20513;-68
2023/06/10 11:20:49;;;;;;;4.67;1.97;;;24.10;99.90;;;;;;5072268;28;20739;-67
2023/06/10 11:23:32;;;;;;;9.03;2.20;;;24.20;99.90;;;;;;5073039;28;20429;-68
2023/06/10 11:26:15;;;;;;;5.83;2.50;;;24.00;99.90;;;;;;5072004;28;20408;-68
2023/06/10 11:29:01;;;;;;;5.93;2.90;;;24.20;99.90;;;;;;5073021;28;20456;-68
2023/06/10 11:31:38;;;;;;;6.77;2.63;;;24.60;99.90;;;;;;5071461;28;20524;-68
2023/06/10 11:34:06;;;;;;;4.87;2.37;;;24.50;99.90;;;;;;5072771;28;20455;-68
2023/06/10 11:36:33;;;;;;;9.20;2.80;;;24.60;99.90;;;;;;5071627;28;20429;-69
2023/06/10 11:39:09;;;;;;;4.93;1.90;;;24.90;99.90;;;;;;5073040;28;20396;-68
2023/06/10 11:41:36;;;;;;;9.53;3.23;;;24.80;99.90;;;;;;5070555;28;20428;-68
2023/06/10 11:44:11;;;;;;;8.17;2.60;;;24.50;99.90;;;;;;5072482;28;20900;-69
2023/06/10 11:46:37;;;;;;;3.10;2.53;;;25.00;99.90;;;;;;5072608;28;20426;-67
2023/06/10 11:49:03;;;;;;;8.23;3.30;;;24.80;99.90;;;;;;5077178;28;20396;-68
2023/06/10 11:51:32;;;;;;;9.90;2.10;;;25.10;99.90;;;;;;5075874;28;21104;-68
2023/06/10 11:53:58;;;;;;;5.10;2.50;;;25.50;99.90;;;;;;5076443;28;20527;-68
2023/06/10 11:56:26;;;;;;;17.83;4.13;;;25.20;99.90;;;;;;5076995;28;20832;-67
2023/06/10 11:59:04;;;;;;;11.63;2.57;;;24.80;99.90;;;;;;5076853;28;20404;-68
2023/06/10 12:01:31;;;;;;;3.97;1.80;;;24.90;99.90;;;;;;5074011;28;20427;-68
2023/06/10 12:04:05;;;;;;;8.33;2.40;;;24.50;99.90;;;;;;5076639;28;20503;-68
2023/06/10 12:06:48;;;;;;;8.03;2.43;;;24.60;99.90;;;;;;5076862;28;20392;-71
2023/06/10 12:09:24;;;;;;;4.73;1.70;;;25.00;99.90;;;;;;5075248;28;20428;-73
2023/06/10 12:11:54;;;;;;;6.43;2.83;;;25.80;99.90;;;;;;5074548;28;20511;-70
2023/06/10 12:14:55;;;;;;;6.20;2.30;;;26.30;99.90;;;;;;5074094;28;20468;-70
2023/06/10 12:17:33;;;;;;;6.63;2.50;;;25.70;99.90;;;;;;5067818;28;20420;-71
2023/06/10 12:20:04;;;;;;;4.10;2.17;;;25.80;99.90;;;;;;5075693;28;20512;-70
2023/06/10 12:22:43;;;;;;;9.40;2.17;;;25.60;99.90;;;;;;5076300;28;20929;-71
2023/06/10 12:25:10;;;;;;;12.23;2.57;;;25.60;99.90;;;;;;5076597;28;20404;-71
2023/06/10 12:27:38;;;;;;;10.90;3.57;;;26.00;99.90;;;;;;5075758;28;20496;-68
2023/06/10 12:30:05;;;;;;;7.90;3.10;;;25.80;99.90;;;;;;5073091;28;20456;-73
2023/06/10 12:32:44;;;;;;;5.07;2.23;;;25.90;99.90;;;;;;5076170;28;20397;-72
2023/06/10 12:35:12;;;;;;;5.70;2.40;;;26.00;99.90;;;;;;5068202;28;20522;-71
2023/06/10 12:37:39;;;;;;;9.57;2.47;;;25.90;99.90;;;;;;5055979;28;20397;-70
2023/06/10 12:40:06;;;;;;;4.90;2.30;;;24.90;99.90;;;;;;5055381;28;20405;-73
2023/06/10 12:42:34;;;;;;;6.80;3.00;;;24.70;99.90;;;;;;5055862;28;20986;-71
2023/06/10 12:45:01;;;;;;;5.93;2.60;;;25.00;99.90;;;;;;5055993;28;20516;-70
2023/06/10 12:47:44;;;;;;;6.40;2.73;;;24.70;99.90;;;;;;5055373;28;20450;-68
2023/06/10 12:50:11;;;;;;;6.80;2.80;;;24.30;99.90;;;;;;5065677;28;20428;-70
2023/06/10 12:52:37;;;;;;;11.20;2.23;;;24.30;99.90;;;;;;5074858;28;20432;-67
2023/06/10 12:55:04;;;;;;;10.03;3.30;;;23.90;99.90;;;;;;5075841;28;20948;-69